createdAt,value
2023-04-18T00:00:13.972Z,135.31
2023-04-18T00:01:13.990Z,134.60
2023-04-18T00:02:14.086Z,136.18
2023-04-18T00:03:14.236Z,135.64
2023-04-18T00:04:14.640Z,136.57
2023-04-18T00:05:14.215Z,136.38
2023-04-18T00:06:14.220Z,138.64
2023-04-18T00:07:14.338Z,135.93
2023-04-18T00:08:14.391Z,139.25
2023-04-18T00:09:14.473Z,138.19
2023-04-18T00:10:14.473Z,136.98
2023-04-18T00:11:14.489Z,135.31
2023-04-18T00:12:14.566Z,135.45
2023-04-18T00:13:14.637Z,136.26
2023-04-18T00:14:15.075Z,138.13
2023-04-18T00:15:14.730Z,139.23
2023-04-18T00:16:14.816Z,136.45
2023-04-18T00:17:14.833Z,137.93
2023-04-18T00:18:14.858Z,136.08
2023-04-18T00:19:14.922Z,137.98
2023-04-18T00:20:14.980Z,138.93
2023-04-18T00:21:15.036Z,141.13
2023-04-18T00:22:15.037Z,138.64
2023-04-18T00:23:15.109Z,138.96
2023-04-18T00:24:15.347Z,139.25
2023-04-18T00:25:15.223Z,137.12
2023-04-18T00:26:15.209Z,138.44
2023-04-18T00:27:15.297Z,139.30
2023-04-18T00:28:15.336Z,140.02
2023-04-18T00:29:15.335Z,135.70
2023-04-18T00:30:15.392Z,134.79
2023-04-18T00:31:15.483Z,141.34
2023-04-18T00:32:15.521Z,135.13
2023-04-18T00:33:15.517Z,139.38
2023-04-18T00:34:15.716Z,135.44
2023-04-18T00:35:15.659Z,138.22
2023-04-18T00:36:15.664Z,138.75
2023-04-18T00:37:15.775Z,136.83
2023-04-18T00:38:15.783Z,140.59
2023-04-18T00:39:15.819Z,137.38
2023-04-18T00:40:15.883Z,137.79
2023-04-18T00:41:15.995Z,135.59
2023-04-18T00:42:15.999Z,137.74
2023-04-18T00:43:16.023Z,137.25
2023-04-18T00:44:16.210Z,136.40
2023-04-18T00:45:16.150Z,135.98
2023-04-18T00:46:16.157Z,133.48
2023-04-18T00:47:16.198Z,138.73
2023-04-18T00:48:16.174Z,136.73
2023-04-18T00:49:16.248Z,137.50
2023-04-18T00:50:16.324Z,139.88
2023-04-18T00:51:16.358Z,137.83
2023-04-18T00:52:16.436Z,137.55
2023-04-18T00:53:16.486Z,136.45
2023-04-18T00:54:16.606Z,138.64
2023-04-18T00:55:16.600Z,138.52
2023-04-18T00:56:16.647Z,136.18
2023-04-18T00:57:16.703Z,137.30
2023-04-18T00:58:16.743Z,138.22
2023-04-18T00:59:16.740Z,135.13
2023-04-18T01:00:16.782Z,135.70
2023-04-18T01:01:16.784Z,135.55
2023-04-18T01:02:16.835Z,136.69
2023-04-18T01:03:16.865Z,138.96
2023-04-18T01:04:17.112Z,137.62
2023-04-18T01:05:16.772Z,138.96
2023-04-18T01:06:16.801Z,135.88
2023-04-18T01:07:16.783Z,136.02
2023-04-18T01:08:16.824Z,135.04
2023-04-18T01:09:16.895Z,136.57
2023-04-18T01:10:16.954Z,134.69
2023-04-18T01:11:16.952Z,133.36
2023-04-18T01:12:17.046Z,135.23
2023-04-18T01:13:17.082Z,130.95
2023-04-18T01:14:17.136Z,135.60
2023-04-18T01:15:17.149Z,132.55
2023-04-18T01:16:17.185Z,136.02
2023-04-18T01:17:17.266Z,137.49
2023-04-18T01:18:17.276Z,138.33
2023-04-18T01:19:17.329Z,138.10
2023-04-18T01:20:17.390Z,136.51
2023-04-18T01:21:17.435Z,136.22
2023-04-18T01:22:17.501Z,135.67
2023-04-18T01:23:17.545Z,135.26
2023-04-18T01:24:17.568Z,136.89
2023-04-18T01:25:17.612Z,134.02
2023-04-18T01:26:17.669Z,138.10
2023-04-18T01:27:17.739Z,136.86
2023-04-18T01:28:17.784Z,137.04
2023-04-18T01:29:17.820Z,140.02
2023-04-18T01:30:17.866Z,137.85
2023-04-18T01:31:17.959Z,133.78
2023-04-18T01:32:17.926Z,140.16
2023-04-18T01:33:17.982Z,135.36
2023-04-18T01:34:18.075Z,137.17
2023-04-18T01:35:18.043Z,136.04
2023-04-18T01:36:18.108Z,135.65
2023-04-18T01:37:18.286Z,136.67
2023-04-18T01:38:18.233Z,134.31
2023-04-18T01:39:18.306Z,138.64
2023-04-18T01:40:18.660Z,133.21
2023-04-18T01:41:18.358Z,135.39
2023-04-18T01:42:18.405Z,134.68
2023-04-18T01:43:18.480Z,134.69
2023-04-18T01:44:18.526Z,132.33
2023-04-18T01:45:18.592Z,133.13
2023-04-18T01:46:18.633Z,135.67
2023-04-18T01:47:18.763Z,136.51
2023-04-18T01:48:18.686Z,139.41
2023-04-18T01:49:18.774Z,134.63
2023-04-18T01:50:18.808Z,137.23
2023-04-18T01:51:18.879Z,137.08
2023-04-18T01:52:18.923Z,136.27
2023-04-18T01:53:18.984Z,136.24
2023-04-18T01:54:19.043Z,138.11
2023-04-18T01:55:19.105Z,135.04
2023-04-18T01:56:19.616Z,135.94
2023-04-18T01:57:19.164Z,136.80
2023-04-18T01:58:19.282Z,134.55
2023-04-18T01:59:19.283Z,138.74
2023-04-18T02:00:19.394Z,136.56
2023-04-18T02:01:19.496Z,139.00
2023-04-18T02:02:19.591Z,139.19
2023-04-18T02:03:19.633Z,136.27
2023-04-18T02:04:19.624Z,138.92
2023-04-18T02:05:19.629Z,137.09
2023-04-18T02:06:19.642Z,135.06
2023-04-18T02:07:19.643Z,136.50
2023-04-18T02:08:19.701Z,137.78
2023-04-18T02:09:19.703Z,136.03
2023-04-18T02:10:19.714Z,133.72
2023-04-18T02:11:19.797Z,133.31
2023-04-18T02:12:19.793Z,136.91
2023-04-18T02:13:19.906Z,134.78
2023-04-18T02:14:19.941Z,133.92
2023-04-18T02:15:19.960Z,133.46
2023-04-18T02:16:19.993Z,134.46
2023-04-18T02:17:19.965Z,132.38
2023-04-18T02:18:19.973Z,134.14
2023-04-18T02:19:20.048Z,135.25
2023-04-18T02:20:20.020Z,137.94
2023-04-18T02:21:20.054Z,138.50
2023-04-18T02:22:20.068Z,139.54
2023-04-18T02:23:20.068Z,139.70
2023-04-18T02:24:20.084Z,137.37
2023-04-18T02:25:20.108Z,135.26
2023-04-18T02:26:20.086Z,133.80
2023-04-18T02:27:20.103Z,133.92
2023-04-18T02:28:20.162Z,135.35
2023-04-18T02:29:20.247Z,135.39
2023-04-18T02:30:20.312Z,133.85
2023-04-18T02:31:20.418Z,137.80
2023-04-18T02:32:20.509Z,135.22
2023-04-18T02:33:20.464Z,134.10
2023-04-18T02:34:20.621Z,135.28
2023-04-18T02:35:20.611Z,132.50
2023-04-18T02:36:20.668Z,137.22
2023-04-18T02:37:20.717Z,134.00
2023-04-18T02:38:20.779Z,134.14
2023-04-18T02:39:20.832Z,137.91
2023-04-18T02:40:20.894Z,135.45
2023-04-18T02:41:20.910Z,133.96
2023-04-18T02:42:20.960Z,136.10
2023-04-18T02:43:20.936Z,135.33
2023-04-18T02:44:20.954Z,133.76
2023-04-18T02:45:20.978Z,134.31
2023-04-18T02:46:21.012Z,131.66
2023-04-18T02:47:20.985Z,130.65
2023-04-18T02:48:21.021Z,137.28
2023-04-18T02:49:21.009Z,134.26
2023-04-18T02:50:20.987Z,134.90
2023-04-18T02:51:21.023Z,135.75
2023-04-18T02:52:21.026Z,132.48
2023-04-18T02:53:21.088Z,131.73
2023-04-18T02:54:21.141Z,133.24
2023-04-18T02:55:21.201Z,132.66
2023-04-18T02:56:21.264Z,132.04
2023-04-18T02:57:21.314Z,132.33
2023-04-18T02:58:21.366Z,133.00
2023-04-18T02:59:21.437Z,135.71
2023-04-18T03:00:21.489Z,135.23
2023-04-18T03:01:21.586Z,136.38
2023-04-18T03:02:21.681Z,134.41
2023-04-18T03:03:21.638Z,134.59
2023-04-18T03:04:21.653Z,133.36
2023-04-18T03:05:21.637Z,132.75
2023-04-18T03:06:21.629Z,132.15
2023-04-18T03:07:21.645Z,134.84
2023-04-18T03:08:21.680Z,133.38
2023-04-18T03:09:21.658Z,131.05
2023-04-18T03:10:21.715Z,135.66
2023-04-18T03:11:21.764Z,133.22
2023-04-18T03:12:21.835Z,136.14
2023-04-18T03:13:21.881Z,132.21
2023-04-18T03:14:21.891Z,134.38
2023-04-18T03:15:21.952Z,133.95
2023-04-18T03:16:22.043Z,131.97
2023-04-18T03:17:22.099Z,136.51
2023-04-18T03:18:22.086Z,132.77
2023-04-18T03:19:22.122Z,132.53
2023-04-18T03:20:22.178Z,132.09
2023-04-18T03:21:22.220Z,131.92
2023-04-18T03:22:22.242Z,132.59
2023-04-18T03:23:22.318Z,133.19
2023-04-18T03:24:22.372Z,135.45
2023-04-18T03:25:22.433Z,133.87
2023-04-18T03:26:22.482Z,133.15
2023-04-18T03:27:22.550Z,133.63
2023-04-18T03:28:22.658Z,131.38
2023-04-18T03:29:22.753Z,134.25
2023-04-18T03:30:22.717Z,134.57
2023-04-18T03:31:22.872Z,133.36
2023-04-18T03:32:22.936Z,135.04
2023-04-18T03:33:22.946Z,132.68
2023-04-18T03:34:23.001Z,133.80
2023-04-18T03:35:23.081Z,130.08
2023-04-18T03:36:23.123Z,131.08
2023-04-18T03:37:23.175Z,137.89
2023-04-18T03:38:23.235Z,132.02
2023-04-18T03:39:23.343Z,130.82
2023-04-18T03:40:23.361Z,131.54
2023-04-18T03:41:23.395Z,129.52
2023-04-18T03:42:23.542Z,132.26
2023-04-18T03:43:23.514Z,131.81
2023-04-18T03:44:23.633Z,132.40
2023-04-18T03:45:23.656Z,131.29
2023-04-18T03:46:23.813Z,134.93
2023-04-18T03:47:23.926Z,130.62
2023-04-18T03:48:23.819Z,131.91
2023-04-18T03:49:23.917Z,129.68
2023-04-18T03:50:23.979Z,130.72
2023-04-18T03:51:24.051Z,131.55
2023-04-18T03:52:24.051Z,134.40
2023-04-18T03:53:24.065Z,131.64
2023-04-18T03:54:24.064Z,130.75
2023-04-18T03:55:24.032Z,131.25
2023-04-18T03:56:24.129Z,130.48
2023-04-18T03:57:24.198Z,130.57
2023-04-18T03:58:24.243Z,130.76
2023-04-18T03:59:24.304Z,130.94
2023-04-18T04:00:24.376Z,133.61
2023-04-18T04:01:24.420Z,132.13
2023-04-18T04:02:24.517Z,128.93
2023-04-18T04:03:24.525Z,130.83
2023-04-18T04:04:24.506Z,127.60
2023-04-18T04:05:24.398Z,129.22
2023-04-18T04:06:24.434Z,129.54
2023-04-18T04:07:24.509Z,125.30
2023-04-18T04:08:25.929Z,126.68
2023-04-18T04:09:24.533Z,122.95
2023-04-18T04:10:24.559Z,118.62
2023-04-18T04:11:24.489Z,116.14
2023-04-18T04:12:24.497Z,111.76
2023-04-18T04:13:24.498Z,106.70
2023-04-18T04:14:24.504Z,107.03
2023-04-18T04:15:24.469Z,100.79
2023-04-18T04:16:24.531Z,99.36
2023-04-18T04:17:24.524Z,96.34
2023-04-18T04:18:24.482Z,90.58
2023-04-18T04:19:24.453Z,86.21
2023-04-18T04:20:24.460Z,86.90
2023-04-18T04:21:24.481Z,85.20
2023-04-18T04:22:24.474Z,81.34
2023-04-18T04:23:24.443Z,80.54
2023-04-18T04:24:24.429Z,75.68
2023-04-18T04:25:24.558Z,72.93
2023-04-18T04:26:24.491Z,68.04
2023-04-18T04:27:24.407Z,64.47
2023-04-18T04:28:24.397Z,63.09
2023-04-18T04:29:24.349Z,61.65
2023-04-18T04:30:24.378Z,58.72
2023-04-18T04:31:24.414Z,59.06
2023-04-18T04:32:24.332Z,51.52
2023-04-18T04:33:24.349Z,52.49
2023-04-18T04:34:24.356Z,53.62
2023-04-18T04:35:24.364Z,51.87
2023-04-18T04:36:24.315Z,51.45
2023-04-18T04:37:24.334Z,51.12
2023-04-18T04:38:24.340Z,49.01
2023-04-18T04:39:24.320Z,50.33
2023-04-18T04:40:24.295Z,46.76
2023-04-18T04:41:24.295Z,46.30
2023-04-18T04:42:24.286Z,46.67
2023-04-18T04:43:24.237Z,49.66
2023-04-18T04:44:24.270Z,51.16
2023-04-18T04:45:24.273Z,51.73
2023-04-18T04:46:24.348Z,51.04
2023-04-18T04:47:24.242Z,50.32
2023-04-18T04:48:24.226Z,52.41
2023-04-18T04:49:24.244Z,49.27
2023-04-18T04:50:24.258Z,53.39
2023-04-18T04:51:24.233Z,54.17
2023-04-18T04:52:24.246Z,53.65
2023-04-18T04:53:24.261Z,50.31
2023-04-18T04:54:24.187Z,47.54
2023-04-18T04:55:24.189Z,47.44
2023-04-18T04:56:24.178Z,45.03
2023-04-18T04:57:24.183Z,42.81
2023-04-18T04:58:24.183Z,39.00
2023-04-18T04:59:24.194Z,39.03
2023-04-18T05:00:24.226Z,39.86
2023-04-18T05:01:24.405Z,35.41
2023-04-18T05:02:24.500Z,34.17
2023-04-18T05:03:24.571Z,32.45
2023-04-18T05:04:24.611Z,28.21
2023-04-18T05:05:24.518Z,26.27
2023-04-18T05:06:24.446Z,29.36
2023-04-18T05:07:24.512Z,25.00
2023-04-18T05:08:24.465Z,26.62
2023-04-18T05:09:24.411Z,29.22
2023-04-18T05:10:24.450Z,31.79
2023-04-18T05:11:24.487Z,31.40
2023-04-18T05:12:24.492Z,31.76
2023-04-18T05:13:24.519Z,27.31
2023-04-18T05:14:24.496Z,26.05
2023-04-18T05:15:24.621Z,27.44
2023-04-18T05:16:24.572Z,28.71
2023-04-18T05:17:24.549Z,27.83
2023-04-18T05:18:24.544Z,25.00
2023-04-18T05:19:24.505Z,27.68
2023-04-18T05:20:24.530Z,26.53
2023-04-18T05:21:24.487Z,28.06
2023-04-18T05:22:24.504Z,28.78
2023-04-18T05:23:24.541Z,28.18
2023-04-18T05:24:24.515Z,33.57
2023-04-18T05:25:24.547Z,33.95
2023-04-18T05:26:24.536Z,31.86
2023-04-18T05:27:24.514Z,35.78
2023-04-18T05:28:24.591Z,39.70
2023-04-18T05:29:24.552Z,35.73
2023-04-18T05:30:24.622Z,29.56
2023-04-18T05:31:24.656Z,27.05
2023-04-18T05:32:24.606Z,25.00
2023-04-18T05:33:24.684Z,27.88
2023-04-18T05:34:24.640Z,28.24
2023-04-18T05:35:24.752Z,26.77
2023-04-18T05:36:24.786Z,26.06
2023-04-18T05:37:24.848Z,23.75
2023-04-18T05:38:24.840Z,26.72
2023-04-18T05:39:24.943Z,27.03
2023-04-18T05:40:24.965Z,32.79
2023-04-18T05:41:24.992Z,45.15
2023-04-18T05:42:25.002Z,47.96
2023-04-18T05:43:25.119Z,52.62
2023-04-18T05:44:25.132Z,57.22
2023-04-18T05:45:25.268Z,68.23
2023-04-18T05:46:25.318Z,69.49
2023-04-18T05:47:25.262Z,73.21
2023-04-18T05:48:25.315Z,67.21
2023-04-18T05:49:25.263Z,70.42
2023-04-18T05:50:25.327Z,74.92
2023-04-18T05:51:25.719Z,77.98
2023-04-18T05:52:25.347Z,81.17
2023-04-18T05:53:25.374Z,84.75
2023-04-18T05:54:25.362Z,86.99
2023-04-18T05:55:25.372Z,89.06
2023-04-18T05:56:25.335Z,91.90
2023-04-18T05:57:25.814Z,93.11
2023-04-18T05:58:25.432Z,91.75
2023-04-18T05:59:25.761Z,97.80
2023-04-18T06:00:25.354Z,95.36
2023-04-18T06:01:25.831Z,92.57
2023-04-18T06:02:25.567Z,97.76
2023-04-18T06:03:25.705Z,100.35
2023-04-18T06:04:25.551Z,100.90
2023-04-18T06:05:25.628Z,102.75
2023-04-18T06:06:25.436Z,101.88
2023-04-18T06:07:25.448Z,106.98
2023-04-18T06:08:25.445Z,108.52
2023-04-18T06:09:25.460Z,106.85
2023-04-18T06:10:25.421Z,108.31
2023-04-18T06:11:25.432Z,109.69
2023-04-18T06:12:25.525Z,109.24
2023-04-18T06:13:25.441Z,114.25
2023-04-18T06:14:25.425Z,112.54
2023-04-18T06:15:25.513Z,116.59
2023-04-18T06:16:25.619Z,111.52
2023-04-18T06:17:25.769Z,115.12
2023-04-18T06:18:25.685Z,113.83
2023-04-18T06:19:25.711Z,113.03
2023-04-18T06:20:25.781Z,112.51
2023-04-18T06:21:25.812Z,117.81
2023-04-18T06:22:25.804Z,114.17
2023-04-18T06:23:25.851Z,113.35
2023-04-18T06:24:25.845Z,116.17
2023-04-18T06:25:25.952Z,115.76
2023-04-18T06:26:25.893Z,117.96
2023-04-18T06:27:31.562Z,112.62
2023-04-18T06:28:29.000Z,112.79
2023-04-18T06:29:25.838Z,114.07
2023-04-18T06:30:25.852Z,115.27
2023-04-18T06:31:26.283Z,117.13
2023-04-18T06:32:26.029Z,117.27
2023-04-18T06:33:26.196Z,114.58
2023-04-18T06:34:25.816Z,117.80
2023-04-18T06:35:26.800Z,118.39
2023-04-18T06:36:25.812Z,116.64
2023-04-18T06:37:25.849Z,120.26
2023-04-18T06:38:25.807Z,119.24
2023-04-18T06:39:25.841Z,111.26
2023-04-18T06:40:25.920Z,108.55
2023-04-18T06:41:26.741Z,110.96
2023-04-18T06:42:25.749Z,111.37
2023-04-18T06:43:25.848Z,114.57
2023-04-18T06:44:25.818Z,119.45
2023-04-18T06:45:26.251Z,118.94
2023-04-18T06:46:25.849Z,122.63
2023-04-18T06:47:25.845Z,124.71
2023-04-18T06:48:26.253Z,125.16
2023-04-18T06:49:26.742Z,127.41
2023-04-18T06:50:25.676Z,127.57
2023-04-18T06:51:25.743Z,124.06
2023-04-18T06:52:25.924Z,128.72
2023-04-18T06:53:25.761Z,132.67
2023-04-18T06:54:25.900Z,135.32
2023-04-18T06:55:25.786Z,136.05
2023-04-18T06:56:25.685Z,136.27
2023-04-18T06:57:25.712Z,138.73
2023-04-18T06:58:25.733Z,136.11
2023-04-18T06:59:25.736Z,145.34
2023-04-18T07:00:26.052Z,147.02
2023-04-18T07:01:25.867Z,148.64
2023-04-18T07:02:25.969Z,148.97
2023-04-18T07:03:28.195Z,152.68
2023-04-18T07:04:26.050Z,150.30
2023-04-18T07:05:26.079Z,155.22
2023-04-18T07:06:26.039Z,154.74
2023-04-18T07:07:26.068Z,159.10
2023-04-18T07:08:26.160Z,162.87
2023-04-18T07:09:26.146Z,165.54
2023-04-18T07:10:26.212Z,164.73
2023-04-18T07:11:26.180Z,169.73
2023-04-18T07:12:26.235Z,171.35
2023-04-18T07:13:26.259Z,172.13
2023-04-18T07:14:26.284Z,173.99
2023-04-18T07:15:26.518Z,178.73
2023-04-18T07:16:26.464Z,179.52
2023-04-18T07:17:27.366Z,182.59
2023-04-18T07:18:34.732Z,184.88
2023-04-18T07:19:27.423Z,185.09
2023-04-18T07:20:26.411Z,185.12
2023-04-18T07:21:26.512Z,185.91
2023-04-18T07:22:26.716Z,187.69
2023-04-18T07:23:26.369Z,191.26
2023-04-18T07:24:26.374Z,192.16
2023-04-18T07:25:26.338Z,193.51
2023-04-18T07:26:26.311Z,193.54
2023-04-18T07:27:26.336Z,194.97
2023-04-18T07:28:26.435Z,195.07
2023-04-18T07:29:26.353Z,197.39
2023-04-18T07:30:26.359Z,197.79
2023-04-18T07:31:26.544Z,197.68
2023-04-18T07:32:26.340Z,197.32
2023-04-18T07:33:26.387Z,189.38
2023-04-18T07:34:26.397Z,185.62
2023-04-18T07:35:26.469Z,181.63
2023-04-18T07:36:26.689Z,180.25
2023-04-18T07:37:26.580Z,176.42
2023-04-18T07:38:26.605Z,174.92
2023-04-18T07:39:26.618Z,170.48
2023-04-18T07:40:26.709Z,160.67
2023-04-18T07:41:27.820Z,167.87
2023-04-18T07:42:26.822Z,165.11
2023-04-18T07:43:26.879Z,160.27
2023-04-18T07:44:26.961Z,163.51
2023-04-18T07:45:26.981Z,162.60
2023-04-18T07:46:27.068Z,167.32
2023-04-18T07:47:28.266Z,166.46
2023-04-18T07:48:27.302Z,166.84
2023-04-18T07:49:27.321Z,171.86
2023-04-18T07:50:27.098Z,173.38
2023-04-18T07:51:27.041Z,172.20
2023-04-18T07:52:27.172Z,175.46
2023-04-18T07:53:26.990Z,179.74
2023-04-18T07:54:26.996Z,190.76
2023-04-18T07:55:27.253Z,197.27
2023-04-18T07:56:26.968Z,196.39
2023-04-18T07:57:26.967Z,195.29
2023-04-18T07:58:26.955Z,193.97
2023-04-18T07:59:26.941Z,194.45
2023-04-18T08:00:26.976Z,195.10
2023-04-18T08:01:26.984Z,195.64
2023-04-18T08:02:27.384Z,201.45
2023-04-18T08:03:27.072Z,201.32
2023-04-18T08:04:29.842Z,201.91
2023-04-18T08:05:26.960Z,202.18
2023-04-18T08:06:26.980Z,202.36
2023-04-18T08:07:26.933Z,205.77
2023-04-18T08:08:26.898Z,210.18
2023-04-18T08:09:27.258Z,212.69
2023-04-18T08:10:26.841Z,213.55
2023-04-18T08:11:26.855Z,210.78
2023-04-18T08:12:26.919Z,210.16
2023-04-18T08:13:26.852Z,212.60
2023-04-18T08:14:26.829Z,211.53
2023-04-18T08:15:26.825Z,210.60
2023-04-18T08:16:27.946Z,207.84
2023-04-18T08:17:26.893Z,208.20
2023-04-18T08:18:26.847Z,207.77
2023-04-18T08:19:27.277Z,202.84
2023-04-18T08:20:26.851Z,201.24
2023-04-18T08:21:26.937Z,205.93
2023-04-18T08:22:26.807Z,209.02
2023-04-18T08:23:26.852Z,205.19
2023-04-18T08:24:26.842Z,206.28
2023-04-18T08:25:26.858Z,197.51
2023-04-18T08:26:26.759Z,197.47
2023-04-18T08:27:26.843Z,193.76
2023-04-18T08:28:26.930Z,204.02
2023-04-18T08:29:26.713Z,195.98
2023-04-18T08:30:26.793Z,187.30
2023-04-18T08:31:26.990Z,182.57
2023-04-18T08:32:26.738Z,169.25
2023-04-18T08:33:26.696Z,172.28
2023-04-18T08:34:26.791Z,168.17
2023-04-18T08:35:26.671Z,167.08
2023-04-18T08:36:26.666Z,158.36
2023-04-18T08:37:26.670Z,147.71
2023-04-18T08:38:26.642Z,144.05
2023-04-18T08:39:26.623Z,143.39
2023-04-18T08:40:26.637Z,134.11
2023-04-18T08:41:26.650Z,119.86
2023-04-18T08:42:26.663Z,102.56
2023-04-18T08:43:26.652Z,84.90
2023-04-18T08:44:26.620Z,89.18
2023-04-18T08:45:26.664Z,52.64
2023-04-18T08:46:26.657Z,66.69
2023-04-18T08:47:26.653Z,77.95
2023-04-18T08:48:26.593Z,77.40
2023-04-18T08:49:26.609Z,86.84
2023-04-18T08:50:26.708Z,95.11
2023-04-18T08:51:26.591Z,96.64
2023-04-18T08:52:26.795Z,97.73
2023-04-18T08:53:26.658Z,107.31
2023-04-18T08:54:27.412Z,123.43
2023-04-18T08:55:26.552Z,127.17
2023-04-18T08:56:26.564Z,119.55
2023-04-18T08:57:26.553Z,110.95
2023-04-18T08:58:26.501Z,116.22
2023-04-18T08:59:26.535Z,124.31
2023-04-18T09:00:26.480Z,117.72
2023-04-18T09:01:26.527Z,117.94
2023-04-18T09:02:28.737Z,120.56
2023-04-18T09:03:26.754Z,132.36
2023-04-18T09:04:26.666Z,129.60
2023-04-18T09:05:26.654Z,133.02
2023-04-18T09:06:27.824Z,136.21
2023-04-18T09:07:27.757Z,138.97
2023-04-18T09:08:26.902Z,129.53
2023-04-18T09:09:27.322Z,138.41
2023-04-18T09:10:26.949Z,144.95
2023-04-18T09:11:26.953Z,139.29
2023-04-18T09:12:27.059Z,114.93
2023-04-18T09:13:27.082Z,70.05
2023-04-18T09:14:27.378Z,43.58
2023-04-18T09:15:27.158Z,31.85
2023-04-18T09:16:28.046Z,25.00
2023-04-18T09:17:27.165Z,40.32
2023-04-18T09:18:27.224Z,39.11
2023-04-18T09:19:27.374Z,28.24
2023-04-18T09:20:27.318Z,36.96
2023-04-18T09:21:27.279Z,27.65
2023-04-18T09:22:27.336Z,56.08
2023-04-18T09:23:27.462Z,52.80
2023-04-18T09:24:27.480Z,44.09
2023-04-18T09:25:27.406Z,52.41
2023-04-18T09:26:27.375Z,68.66
2023-04-18T09:27:27.361Z,85.65
2023-04-18T09:28:27.393Z,72.48
2023-04-18T09:29:27.394Z,95.09
2023-04-18T09:30:27.380Z,103.90
2023-04-18T09:31:27.393Z,106.41
2023-04-18T09:32:27.528Z,111.23
2023-04-18T09:33:27.365Z,102.21
2023-04-18T09:34:28.246Z,124.88
2023-04-18T09:35:27.366Z,127.28
2023-04-18T09:36:28.396Z,152.53
2023-04-18T09:37:27.440Z,152.84
2023-04-18T09:38:27.429Z,142.05
2023-04-18T09:39:27.453Z,133.50
2023-04-18T09:40:27.468Z,138.46
2023-04-18T09:41:27.782Z,124.62
2023-04-18T09:43:46.524Z,25.00
2023-04-18T09:44:46.337Z,25.00
2023-04-18T09:45:46.351Z,25.00
2023-04-18T09:46:47.614Z,25.00
2023-04-18T09:47:46.415Z,25.00
2023-04-18T09:48:46.305Z,25.90
2023-04-18T09:49:46.283Z,25.25
2023-04-18T09:50:46.569Z,25.00
2023-04-18T09:51:46.355Z,26.61
2023-04-18T09:52:46.278Z,29.54
2023-04-18T09:53:46.298Z,25.64
2023-04-18T09:54:48.179Z,25.00
2023-04-18T09:55:46.239Z,23.46
2023-04-18T09:56:46.207Z,32.94
2023-04-18T09:57:46.207Z,25.45
2023-04-18T09:58:46.200Z,25.00
2023-04-18T09:59:46.216Z,32.10
2023-04-18T10:00:46.973Z,26.47
2023-04-18T10:01:46.236Z,25.00
2023-04-18T10:02:46.237Z,24.92
2023-04-18T10:03:46.266Z,27.20
2023-04-18T10:04:46.255Z,27.01
2023-04-18T10:05:46.293Z,25.46
2023-04-18T10:06:46.112Z,26.15
2023-04-18T10:07:46.181Z,27.63
2023-04-18T10:08:46.191Z,25.00
2023-04-18T10:09:46.126Z,25.00
2023-04-18T10:10:46.752Z,25.85
2023-04-18T10:11:46.098Z,34.49
2023-04-18T10:12:47.018Z,56.37
2023-04-18T10:13:46.096Z,89.92
2023-04-18T10:14:46.180Z,73.81
2023-04-18T10:15:46.579Z,63.67
2023-04-18T10:16:48.418Z,62.16
2023-04-18T10:18:02.824Z,51.20
2023-04-18T10:18:47.526Z,37.95
2023-04-18T10:19:46.552Z,39.90
2023-04-18T10:20:46.589Z,42.11
2023-04-18T10:21:46.057Z,40.46
2023-04-18T10:22:46.059Z,30.07
2023-04-18T10:23:46.017Z,27.90
2023-04-18T10:24:46.023Z,30.75
2023-04-18T10:25:46.033Z,33.87
2023-04-18T10:26:46.006Z,20.65
2023-04-18T10:27:46.044Z,21.85
2023-04-18T10:28:46.048Z,28.93
2023-04-18T10:29:46.029Z,25.37
2023-04-18T10:30:45.971Z,26.63
2023-04-18T10:31:45.988Z,41.94
2023-04-18T10:32:46.121Z,33.26
2023-04-18T10:33:52.803Z,58.74
2023-04-18T10:34:46.986Z,59.14
2023-04-18T10:35:45.957Z,60.23
2023-04-18T10:36:45.933Z,60.43
2023-04-18T10:37:46.079Z,62.95
2023-04-18T10:38:45.921Z,46.13
2023-04-18T10:39:45.920Z,38.98
2023-04-18T10:40:45.938Z,31.17
2023-04-18T10:41:45.893Z,23.90
2023-04-18T10:42:46.054Z,25.00
2023-04-18T10:43:45.896Z,28.35
2023-04-18T10:44:45.930Z,42.69
2023-04-18T10:45:45.928Z,24.46
2023-04-18T10:46:45.925Z,34.10
2023-04-18T10:47:46.167Z,40.80
2023-04-18T10:48:45.925Z,29.02
2023-04-18T10:49:45.992Z,28.50
2023-04-18T10:50:45.972Z,25.41
2023-04-18T10:51:46.118Z,37.81
2023-04-18T10:52:46.570Z,45.43
2023-04-18T10:53:46.125Z,41.82
2023-04-18T10:54:46.121Z,29.74
2023-04-18T10:55:46.185Z,33.31
2023-04-18T10:56:46.197Z,42.89
2023-04-18T10:57:46.260Z,57.12
2023-04-18T10:58:46.407Z,51.42
2023-04-18T10:59:46.575Z,46.93
2023-04-18T11:00:46.446Z,39.70
2023-04-18T11:01:46.435Z,35.55
2023-04-18T11:02:46.618Z,25.73
2023-04-18T11:03:46.579Z,27.78
2023-04-18T11:04:46.561Z,67.50
2023-04-18T11:05:46.617Z,65.73
2023-04-18T11:06:46.620Z,38.26
2023-04-18T11:07:46.636Z,29.23
2023-04-18T11:08:46.690Z,34.02
2023-04-18T11:09:46.742Z,50.58
2023-04-18T11:10:46.800Z,48.35
2023-04-18T11:11:46.805Z,49.90
2023-04-18T11:12:46.868Z,37.38
2023-04-18T11:13:46.927Z,52.68
2023-04-18T11:14:47.038Z,37.05
2023-04-18T11:15:46.956Z,50.64
2023-04-18T11:16:47.149Z,24.92
2023-04-18T11:17:47.126Z,29.58
2023-04-18T11:18:47.157Z,45.94
2023-04-18T11:19:48.045Z,49.03
2023-04-18T11:20:47.244Z,46.77
2023-04-18T11:21:47.294Z,29.60
2023-04-18T11:22:47.314Z,42.91
2023-04-18T11:23:47.353Z,54.28
2023-04-18T11:24:47.568Z,49.82
2023-04-18T11:25:47.426Z,37.69
2023-04-18T11:26:47.473Z,46.01
2023-04-18T11:27:47.475Z,34.72
2023-04-18T11:28:47.564Z,46.19
2023-04-18T11:29:47.599Z,51.96
2023-04-18T11:30:47.596Z,37.80
2023-04-18T11:31:47.671Z,51.84
2023-04-18T11:32:47.721Z,53.66
2023-04-18T11:33:47.787Z,56.35
2023-04-18T11:34:47.807Z,30.95
2023-04-18T11:35:47.796Z,39.03
2023-04-18T11:36:47.856Z,43.15
2023-04-18T11:37:47.915Z,72.21
2023-04-18T11:38:47.968Z,85.13
2023-04-18T11:39:48.030Z,54.29
2023-04-18T11:40:48.036Z,53.26
2023-04-18T11:41:48.084Z,55.37
2023-04-18T11:42:48.565Z,75.41
2023-04-18T11:43:48.165Z,56.46
2023-04-18T11:44:48.217Z,61.82
2023-04-18T11:45:48.272Z,75.01
2023-04-18T11:46:48.324Z,66.66
2023-04-18T11:47:48.354Z,81.12
2023-04-18T11:48:48.388Z,59.05
2023-04-18T11:49:48.444Z,44.29
2023-04-18T11:50:48.506Z,31.94
2023-04-18T11:51:48.527Z,49.04
2023-04-18T11:52:48.575Z,40.78
2023-04-18T11:53:48.624Z,52.50
2023-04-18T11:54:48.693Z,69.03
2023-04-18T11:55:48.746Z,61.04
2023-04-18T11:56:48.750Z,28.88
2023-04-18T11:57:48.808Z,51.00
2023-04-18T11:58:48.867Z,73.34
2023-04-18T11:59:48.866Z,62.23
2023-04-18T12:00:48.926Z,64.66
2023-04-18T12:01:49.016Z,73.81
2023-04-18T12:02:49.296Z,72.04
2023-04-18T12:03:49.140Z,78.42
2023-04-18T12:04:49.404Z,51.87
2023-04-18T12:05:49.418Z,80.48
2023-04-18T12:06:49.228Z,73.37
2023-04-18T12:07:49.290Z,86.56
2023-04-18T12:08:49.342Z,84.25
2023-04-18T12:09:49.349Z,76.92
2023-04-18T12:10:49.399Z,78.81
2023-04-18T12:11:49.472Z,73.63
2023-04-18T12:12:49.523Z,73.51
2023-04-18T12:13:49.575Z,75.36
2023-04-18T12:14:49.600Z,76.69
2023-04-18T12:15:49.817Z,80.76
2023-04-18T12:16:49.709Z,82.36
2023-04-18T12:17:49.755Z,81.05
2023-04-18T12:18:49.816Z,86.96
2023-04-18T12:19:49.964Z,70.21
2023-04-18T12:20:49.913Z,86.44
2023-04-18T12:21:49.937Z,96.28
2023-04-18T12:22:50.034Z,104.90
2023-04-18T12:23:50.064Z,87.83
2023-04-18T12:24:50.084Z,84.29
2023-04-18T12:25:50.133Z,64.19
2023-04-18T12:26:50.173Z,76.61
2023-04-18T12:27:50.194Z,44.08
2023-04-18T12:28:50.251Z,75.62
2023-04-18T12:29:50.315Z,60.28
2023-04-18T12:30:50.312Z,50.26
2023-04-18T12:31:50.394Z,74.58
2023-04-18T12:32:50.598Z,75.11
2023-04-18T12:33:50.533Z,81.66
2023-04-18T12:34:50.483Z,65.13
2023-04-18T12:35:50.563Z,55.15
2023-04-18T12:36:50.641Z,64.51
2023-04-18T12:37:50.661Z,63.92
2023-04-18T12:38:50.680Z,88.41
2023-04-18T12:39:50.728Z,75.19